Time;durP1;ratioP1;P1;durP2;ratioP2;P2;SDS_P1;SDS_P2;PMS_P1;PMS_P2;Temp;Humidity;BMP_temperature;BMP_pressure;BME280_temperature;BME280_humidity;BME280_pressure;Samples;Min_cycle;Max_cycle;Signal;HPM_P1;HPM_P2
2023/10/09 00:06:07;;;;;;;1999.90;999.90;;;;;;;11.07;100.00;98474.84;18636663;31;20440;-58
2023/10/09 00:16:22;;;;;;;1999.90;999.90;;;;;;;11.10;100.00;98471.66;18635749;31;20156;-59
2023/10/09 00:26:26;;;;;;;1999.90;999.90;;;;;;;11.00;100.00;98474.22;18622590;31;20064;-60
2023/10/09 00:36:29;;;;;;;1999.90;999.90;;;;;;;11.02;100.00;98472.09;18634255;31;20100;-59
2023/10/09 00:46:34;;;;;;;1999.90;999.90;;;;;;;11.03;100.00;98473.69;18634213;31;20056;-58
2023/10/09 00:56:43;;;;;;;1999.90;999.90;;;;;;;10.97;100.00;98474.72;18633660;31;20372;-58
2023/10/09 01:07:05;;;;;;;1999.90;999.90;;;;;;;10.91;100.00;98464.91;18625914;31;20060;-58
2023/10/09 01:17:09;;;;;;;1999.90;999.90;;;;;;;10.78;100.00;98456.09;18632142;31;20067;-58
2023/10/09 01:27:14;;;;;;;1999.90;999.90;;;;;;;10.82;100.00;98448.31;18604122;31;20072;-58
2023/10/09 01:37:22;;;;;;;1999.90;999.90;;;;;;;10.61;100.00;98450.75;18630837;31;20464;-58
2023/10/09 01:47:31;;;;;;;1999.90;999.90;;;;;;;10.59;100.00;98435.84;18630203;31;20060;-58
2023/10/09 01:57:34;;;;;;;1999.90;999.90;;;;;;;10.51;100.00;98443.34;18629922;31;20052;-58
2023/10/09 02:07:40;;;;;;;1999.90;999.90;;;;;;;10.44;100.00;98448.13;18628857;31;20090;-58
2023/10/09 02:17:52;;;;;;;1999.90;999.90;;;;;;;10.46;100.00;98445.97;18614834;31;20056;-58
2023/10/09 02:27:59;;;;;;;1999.90;999.90;;;;;;;10.50;100.00;98433.59;18627827;31;20470;-58
2023/10/09 02:38:06;;;;;;;1999.90;999.90;;;;;;;10.49;100.00;98442.75;18613546;31;20052;-58
2023/10/09 02:48:10;;;;;;;1999.90;999.90;;;;;;;10.36;100.00;98431.50;18626825;31;20103;-58
2023/10/09 02:58:20;;;;;;;1999.90;999.90;;;;;;;10.40;100.00;98409.13;18605132;31;20049;-58
2023/10/09 03:08:23;;;;;;;1999.90;999.90;;;;;;;10.31;100.00;98411.41;18625871;31;20053;-58
2023/10/09 03:18:25;;;;;;;1999.90;999.90;;;;;;;10.08;100.00;98414.31;18625449;31;20036;-58
2023/10/09 03:28:28;;;;;;;1999.90;999.90;;;;;;;10.10;100.00;98423.00;18611030;31;20056;-58
2023/10/09 03:38:34;;;;;;;1999.90;999.90;;;;;;;9.97;100.00;98422.28;18597283;31;20056;-58
2023/10/09 03:48:37;;;;;;;1999.90;999.90;;;;;;;10.00;100.00;98420.97;18606357;31;20376;-57
2023/10/09 03:58:42;;;;;;;1999.90;999.90;;;;;;;10.09;100.00;98424.88;18622842;31;20067;-58
2023/10/09 04:08:48;;;;;;;1999.90;999.90;;;;;;;10.02;100.00;98416.13;18630041;31;20092;-58
2023/10/09 04:18:52;;;;;;;1999.90;999.90;;;;;;;9.93;100.00;98413.03;18636302;31;20148;-58
2023/10/09 04:28:54;;;;;;;1999.90;999.90;;;;;;;9.68;100.00;98418.88;18620831;31;20049;-58
2023/10/09 04:49:26;;;;;;;1999.90;999.90;;;;;;;9.73;100.00;98421.66;18620518;31;20082;-58
2023/10/09 04:59:28;;;;;;;1999.90;999.90;;;;;;;9.75;100.00;98414.09;18621783;31;20482;-58
2023/10/09 05:09:55;;;;;;;1999.90;999.90;;;;;;;9.71;100.00;98429.16;18632898;31;20088;-58
2023/10/09 05:20:52;;;;;;;1999.90;999.90;;;;;;;9.78;100.00;98427.09;18631630;31;20423;-58
2023/10/09 05:30:24;;;;;;;1999.90;999.90;;;;;;;9.66;100.00;98431.78;18631470;31;20086;-58
2023/10/09 05:40:31;;;;;;;1999.90;999.90;;;;;;;9.58;100.00;98442.97;18630524;31;20100;-58
2023/10/09 05:50:38;;;;;;;1999.90;999.90;;;;;;;9.65;100.00;98443.66;18630362;31;20388;-59
2023/10/09 06:32:16;;;;;;;1999.90;999.90;;;;;;;9.72;100.00;98473.22;18627623;31;20381;-60
2023/10/09 06:52:57;;;;;;;1999.90;999.90;;;;;;;10.14;100.00;98484.41;18612367;31;20112;-60
2023/10/09 07:03:11;;;;;;;1999.90;999.90;;;;;;;10.44;100.00;98506.75;18614121;31;20081;-60
2023/10/09 07:13:14;;;;;;;1999.90;999.90;;;;;;;10.73;100.00;98507.47;18625903;31;20094;-60
2023/10/09 07:23:17;;;;;;;1999.90;999.90;;;;;;;10.98;100.00;98514.25;18625389;31;20113;-60
2023/10/09 07:33:30;;;;;;;1999.90;999.90;;;;;;;11.49;100.00;98531.06;18624898;31;20048;-60
2023/10/09 07:53:56;;;;;;;1999.90;999.90;;;;;;;12.58;100.00;98548.28;18637669;31;20071;-59
2023/10/09 08:04:20;;;;;;;1999.90;999.90;;;;;;;12.72;100.00;98557.62;18636937;31;20049;-59
2023/10/09 08:24:52;;;;;;;1999.90;999.90;;;;;;;13.60;100.00;98552.59;18635384;31;20060;-59
2023/10/09 08:34:55;;;;;;;1999.90;999.90;;;;;;;14.07;100.00;98552.37;18635177;31;20063;-59
2023/10/09 08:45:14;;;;;;;1999.90;999.90;;;;;;;14.31;100.00;98556.47;18633807;31;20100;-59
2023/10/09 08:55:17;;;;;;;1999.90;999.90;;;;;;;14.31;100.00;98551.03;18632916;31;20056;-59
2023/10/09 09:05:20;;;;;;;1999.90;999.90;;;;;;;14.75;100.00;98553.19;18593166;31;20083;-59
2023/10/09 09:15:26;;;;;;;1999.90;999.90;;;;;;;15.45;100.00;98544.19;18625655;31;20060;-59
2023/10/09 09:26:11;;;;;;;1999.90;999.90;;;;;;;15.71;100.00;98531.22;18631799;31;20092;-57
2023/10/09 09:36:14;;;;;;;;;;;;;;;16.43;100.00;98533.44;18616915;31;20084;-58
2023/10/09 09:46:18;;;;;;;1999.90;999.90;;;;;;;17.16;100.00;98529.97;18631008;31;20359;-57
2023/10/09 09:56:25;;;;;;;1999.90;999.90;;;;;;;17.88;100.00;98524.34;18629866;31;20074;-57
2023/10/09 10:06:32;;;;;;;1999.90;999.90;;;;;;;18.46;100.00;98520.38;18629004;31;20114;-57
2023/10/09 10:17:02;;;;;;;1999.90;999.90;;;;;;;18.90;100.00;98515.50;18628412;31;20064;-57
2023/10/09 10:27:44;;;;;;;1999.90;999.90;;;;;;;19.33;100.00;98510.78;18627980;31;20082;-57
2023/10/09 10:38:03;;;;;;;1999.90;999.90;;;;;;;20.13;100.00;98516.66;18626661;31;20045;-58
2023/10/09 10:48:10;;;;;;;1999.90;999.90;;;;;;;20.91;100.00;98510.00;18627433;31;20052;-58
2023/10/09 10:58:23;;;;;;;1999.90;999.90;;;;;;;21.54;100.00;98502.38;18626572;31;20045;-58
2023/10/09 11:08:31;;;;;;;1999.90;999.90;;;;;;;21.34;100.00;98498.31;18611855;31;20052;-58
2023/10/09 11:18:45;;;;;;;1999.90;999.90;;;;;;;21.55;100.00;98493.00;18624995;31;20151;-57
2023/10/09 11:29:23;;;;;;;1999.90;999.90;;;;;;;22.07;100.00;98474.88;18625342;31;20057;-57
2023/10/09 11:39:32;;;;;;;1999.90;999.90;;;;;;;22.98;99.18;98475.56;18624903;31;20040;-58
2023/10/09 11:49:44;;;;;;;1999.90;999.90;;;;;;;23.23;100.00;98474.94;18624827;31;20356;-58
2023/10/09 11:59:52;;;;;;;1999.90;999.90;;;;;;;23.02;100.00;98464.66;18605194;31;20396;-58
2023/10/09 12:09:56;;;;;;;1999.90;999.90;;;;;;;23.59;100.00;98455.03;18610458;31;20052;-57
2023/10/09 12:19:59;;;;;;;1999.90;999.90;;;;;;;24.25;91.84;98436.88;18609977;31;20053;-58
2023/10/09 12:30:03;;;;;;;1999.90;999.90;;;;;;;24.74;94.53;98429.84;18615202;31;20112;-57
2023/10/09 12:40:10;;;;;;;1999.90;999.90;;;;;;;25.37;91.95;98424.69;18620445;31;20059;-58
2023/10/09 12:50:14;;;;;;;1999.90;999.90;;;;;;;25.96;63.08;98414.09;18634265;31;20447;-58
2023/10/09 13:00:25;;;;;;;1999.90;999.90;;;;;;;26.24;65.74;98410.47;18619443;31;20048;-58
2023/10/09 13:10:31;;;;;;;1999.90;999.90;;;;;;;26.22;80.92;98401.72;18633176;31;20057;-58
2023/10/09 13:20:36;;;;;;;1999.90;999.90;;;;;;;25.90;94.71;98384.22;18632444;31;20108;-58
2023/10/09 13:30:49;;;;;;;1999.90;999.90;;;;;;;25.57;100.00;98380.56;18631525;31;20083;-58
2023/10/09 13:41:01;;;;;;;1999.90;999.90;;;;;;;25.43;100.00;98367.12;18630178;31;20041;-58
2023/10/09 13:51:08;;;;;;;1999.90;999.90;;;;;;;25.18;100.00;98361.63;18609008;31;20052;-58
2023/10/09 14:01:20;;;;;;;1999.90;999.90;;;;;;;24.66;100.00;98354.13;18629852;31;20067;-58
2023/10/09 14:11:24;;;;;;;1999.90;999.90;;;;;;;23.91;100.00;98342.19;18629067;31;20440;-57
2023/10/09 14:21:37;;;;;;;1999.90;999.90;;;;;;;23.72;100.00;98330.84;18628936;31;20051;-58
2023/10/09 14:31:40;;;;;;;1999.90;999.90;;;;;;;23.35;100.00;98313.03;18627944;31;20048;-58
2023/10/09 14:41:43;;;;;;;1999.90;999.90;;;;;;;23.20;100.00;98301.81;18627036;31;20375;-58
2023/10/09 14:51:46;;;;;;;1999.90;999.90;;;;;;;23.01;100.00;98306.63;18626486;31;20056;-57
2023/10/09 15:01:50;;;;;;;1999.90;999.90;;;;;;;22.88;100.00;98291.16;18626444;31;20378;-57
2023/10/09 15:11:57;;;;;;;1999.90;999.90;;;;;;;22.75;100.00;98289.47;18625747;31;20087;-57
2023/10/09 15:22:00;;;;;;;1999.90;999.90;;;;;;;22.54;100.00;98298.53;18625710;31;20067;-57
2023/10/09 15:32:14;;;;;;;1999.90;999.90;;;;;;;22.37;100.00;98291.19;18610369;31;20064;-57
2023/10/09 15:42:17;;;;;;;1999.90;999.90;;;;;;;22.30;100.00;98296.41;18610340;31;20475;-57
2023/10/09 15:52:20;;;;;;;1999.90;999.90;;;;;;;21.96;100.00;98290.69;18624408;31;20053;-58
2023/10/09 16:02:24;;;;;;;1999.90;999.90;;;;;;;21.87;100.00;98286.37;18627316;31;20136;-58
2023/10/09 16:12:30;;;;;;;1999.90;999.90;;;;;;;21.67;100.00;98286.75;18622786;31;20048;-58
2023/10/09 16:22:33;;;;;;;1999.90;999.90;;;;;;;21.31;100.00;98289.91;18622181;31;20333;-57
2023/10/09 16:32:38;;;;;;;;;;;;;;;20.99;100.00;98292.00;18614790;31;20374;-58
2023/10/09 16:42:44;;;;;;;1999.90;999.90;;;;;;;20.63;100.00;98296.66;18620988;31;19960;-57
2023/10/09 16:52:47;;;;;;;1999.90;999.90;;;;;;;20.07;100.00;98304.56;18633686;31;20052;-57
2023/10/09 17:02:51;;;;;;;1999.90;999.90;;;;;;;19.64;100.00;98308.72;18619189;31;20097;-57
2023/10/09 17:12:55;;;;;;;1999.90;999.90;;;;;;;19.40;100.00;98303.56;18631787;31;20123;-57
2023/10/09 17:22:59;;;;;;;1999.90;999.90;;;;;;;19.12;100.00;98305.62;18632239;31;20076;-57
2023/10/09 17:33:04;;;;;;;1999.90;999.90;;;;;;;18.99;100.00;98303.75;18631380;31;20103;-58
2023/10/09 17:43:07;;;;;;;1999.90;999.90;;;;;;;18.74;100.00;98305.94;18630657;31;20060;-57
2023/10/09 17:53:11;;;;;;;1999.90;999.90;;;;;;;18.45;100.00;98312.56;18630318;31;20083;-57
2023/10/09 18:03:16;;;;;;;1999.90;999.90;;;;;;;18.41;100.00;98308.81;18629820;31;20048;-57
2023/10/09 18:13:19;;;;;;;1999.90;999.90;;;;;;;18.29;100.00;98310.16;18615210;31;20060;-57
2023/10/09 18:23:22;;;;;;;1999.90;999.90;;;;;;;18.01;100.00;98303.88;18621529;31;20095;-58
2023/10/09 18:33:25;;;;;;;1999.90;999.90;;;;;;;17.77;100.00;98293.06;18627805;31;20078;-57
2023/10/09 18:43:28;;;;;;;1999.90;999.90;;;;;;;17.52;100.00;98308.81;18613195;31;20345;-57
2023/10/09 18:53:31;;;;;;;1999.90;999.90;;;;;;;17.29;100.00;98305.09;18612716;31;20060;-57
2023/10/09 19:03:34;;;;;;;1999.90;999.90;;;;;;;17.20;100.00;98309.66;18626178;31;20067;-57
2023/10/09 19:13:41;;;;;;;1999.90;999.90;;;;;;;16.96;100.00;98315.19;18625881;31;20052;-57
2023/10/09 19:23:49;;;;;;;1999.90;999.90;;;;;;;16.70;100.00;98315.53;18625279;31;20060;-57
2023/10/09 19:34:13;;;;;;;1999.90;999.90;;;;;;;16.51;100.00;98313.62;18625145;31;20357;-57
2023/10/09 19:44:35;;;;;;;1999.90;999.90;;;;;;;16.31;100.00;98322.88;18623509;31;20135;-57
2023/10/09 19:54:42;;;;;;;1999.90;999.90;;;;;;;16.07;100.00;98340.06;18637749;31;20100;-57
2023/10/09 20:04:49;;;;;;;1999.90;999.90;;;;;;;15.74;100.00;98352.63;18637283;31;20061;-58
2023/10/09 20:14:53;;;;;;;1999.90;999.90;;;;;;;15.60;100.00;98357.94;18630018;31;20078;-57
2023/10/09 20:24:56;;;;;;;1999.90;999.90;;;;;;;15.39;100.00;98366.28;18635971;31;20090;-57
2023/10/09 20:34:59;;;;;;;1999.90;999.90;;;;;;;15.23;100.00;98362.84;18621440;31;20052;-57
2023/10/09 20:45:04;;;;;;;1999.90;999.90;;;;;;;15.02;100.00;98372.25;18634432;31;20096;-57
2023/10/09 20:55:08;;;;;;;1999.90;999.90;;;;;;;14.92;100.00;98370.41;18633954;31;20056;-57
2023/10/09 21:05:12;;;;;;;;;;;;;;;14.86;100.00;98372.34;18633798;31;20137;-57
2023/10/09 21:15:17;;;;;;;1999.90;999.90;;;;;;;14.51;100.00;98384.19;18633227;31;19952;-57
2023/10/09 21:25:21;;;;;;;1999.90;999.90;;;;;;;14.59;100.00;98386.31;18632245;31;20057;-57
2023/10/09 21:35:27;;;;;;;1999.90;999.90;;;;;;;14.50;100.00;98372.50;18631620;31;20068;-57
2023/10/09 21:45:31;;;;;;;1999.90;999.90;;;;;;;14.70;100.00;98368.91;18630770;31;20040;-57
2023/10/09 21:55:35;;;;;;;;;;;;;;;14.69;100.00;98374.59;18616647;31;20060;-57
2023/10/09 22:05:42;;;;;;;1999.90;999.90;;;;;;;14.68;100.00;98367.56;18623446;31;19944;-57
2023/10/09 22:15:48;;;;;;;1999.90;999.90;;;;;;;14.62;100.00;98364.00;18629210;31;20083;-57
2023/10/09 22:26:00;;;;;;;1999.90;999.90;;;;;;;14.51;100.00;98368.69;18628565;31;20372;-57
2023/10/09 22:36:03;;;;;;;1999.90;999.90;;;;;;;14.39;100.00;98373.62;18601680;31;20094;-57
2023/10/09 22:46:07;;;;;;;1999.90;999.90;;;;;;;14.20;100.00;98371.50;18560496;32;20083;-57
2023/10/09 22:56:15;;;;;;;1999.90;999.90;;;;;;;14.11;100.00;98369.63;18561428;31;20171;-57
2023/10/09 23:06:33;;;;;;;1999.90;999.90;;;;;;;13.98;100.00;98373.75;18561362;31;20071;-57
2023/10/09 23:48:23;;;;;;;1999.90;999.90;;;;;;;13.31;100.00;98379.19;18420875;32;20375;-57
2023/10/09 23:58:33;;;;;;;1999.90;999.90;;;;;;;13.12;100.00;98366.12;18479389;32;20105;-59
